Time;durP1;ratioP1;P1;durP2;ratioP2;P2;SDS_P1;SDS_P2;PMS_P1;PMS_P2;Temp;Humidity;BMP_temperature;BMP_pressure;BME280_temperature;BME280_humidity;BME280_pressure;Samples;Min_cycle;Max_cycle;Signal;HPM_P1;HPM_P2
2023/01/23 00:01:06;;;;;;;23.57;13.97;;;2.50;99.90;;;;;;5073767;28;20285;-73
2023/01/23 00:03:33;;;;;;;26.87;14.67;;;2.50;99.90;;;;;;5076983;28;20211;-74
2023/01/23 00:06:07;;;;;;;26.93;15.40;;;2.50;99.90;;;;;;5077101;28;20175;-73
2023/01/23 00:08:36;;;;;;;25.80;13.93;;;2.50;99.90;;;;;;5074911;28;20181;-73
2023/01/23 00:11:06;;;;;;;25.20;14.27;;;2.40;99.90;;;;;;5077732;28;20209;-74
2023/01/23 00:13:35;;;;;;;25.40;14.27;;;2.40;99.90;;;;;;5076319;28;20669;-74
2023/01/23 00:16:09;;;;;;;21.83;14.13;;;2.40;99.90;;;;;;5077021;28;20201;-73
2023/01/23 00:18:34;;;;;;;25.60;15.07;;;2.40;99.90;;;;;;5080015;28;20211;-74
2023/01/23 00:21:09;;;;;;;29.07;16.73;;;2.40;99.90;;;;;;5073887;28;20248;-73
2023/01/23 00:23:35;;;;;;;28.37;15.73;;;2.40;99.90;;;;;;5077006;28;20928;-74
2023/01/23 00:26:06;;;;;;;24.80;14.80;;;2.40;99.90;;;;;;5076813;28;20216;-72
2023/01/23 00:28:31;;;;;;;30.07;15.47;;;2.40;99.90;;;;;;5070763;28;20689;-72
2023/01/23 00:31:08;;;;;;;24.87;14.23;;;2.40;99.90;;;;;;5077257;28;20209;-74
2023/01/23 00:33:34;;;;;;;25.73;14.03;;;2.40;99.90;;;;;;5055814;28;20585;-74
2023/01/23 00:36:00;;;;;;;27.13;15.03;;;2.40;99.90;;;;;;5074918;28;20248;-73
2023/01/23 00:38:26;;;;;;;29.10;15.77;;;2.30;99.90;;;;;;5077513;28;20260;-71
2023/01/23 00:40:53;;;;;;;26.70;15.40;;;2.30;99.90;;;;;;5074621;28;20716;-71
2023/01/23 00:43:20;;;;;;;25.90;14.33;;;2.40;99.90;;;;;;5056805;28;20210;-75
2023/01/23 00:45:45;;;;;;;25.43;14.90;;;2.40;99.90;;;;;;5059638;28;20212;-74
2023/01/23 00:48:13;;;;;;;26.07;14.63;;;2.50;99.90;;;;;;5054805;28;20167;-74
2023/01/23 00:50:39;;;;;;;27.73;15.13;;;2.50;99.90;;;;;;5058172;28;20241;-74
2023/01/23 00:53:05;;;;;;;28.63;14.83;;;2.50;99.90;;;;;;5075126;28;20222;-74
2023/01/23 00:55:31;;;;;;;26.33;14.40;;;2.50;99.90;;;;;;5072848;28;20222;-73
2023/01/23 00:57:59;;;;;;;24.33;14.30;;;2.50;99.90;;;;;;5079140;28;20221;-71
2023/01/23 01:00:25;;;;;;;26.17;14.67;;;2.50;99.90;;;;;;5055914;28;20272;-75
2023/01/23 01:02:50;;;;;;;27.30;15.53;;;2.50;99.90;;;;;;5066088;28;20182;-71
2023/01/23 01:05:17;;;;;;;27.30;15.13;;;2.60;99.90;;;;;;5075526;28;20585;-74
2023/01/23 01:07:44;;;;;;;29.43;16.00;;;2.50;99.90;;;;;;5055972;28;20207;-74
2023/01/23 01:10:10;;;;;;;26.70;15.17;;;2.50;99.90;;;;;;5059672;28;20242;-73
2023/01/23 01:12:36;;;;;;;26.67;13.80;;;2.50;99.90;;;;;;5076832;28;20215;-75
2023/01/23 01:15:02;;;;;;;28.47;15.70;;;2.50;99.90;;;;;;5067972;28;20182;-73
2023/01/23 01:17:28;;;;;;;27.27;15.17;;;2.50;99.90;;;;;;5077776;28;20202;-73
2023/01/23 01:19:54;;;;;;;25.60;14.10;;;2.40;99.90;;;;;;5075497;28;20216;-72
2023/01/23 01:22:20;;;;;;;25.70;15.43;;;2.40;99.90;;;;;;5071524;28;20210;-71
2023/01/23 01:24:45;;;;;;;26.70;14.63;;;2.40;99.90;;;;;;5078809;28;20662;-72
2023/01/23 01:27:11;;;;;;;29.50;15.47;;;2.40;99.90;;;;;;5073356;28;20206;-74
2023/01/23 01:29:37;;;;;;;26.43;14.97;;;2.40;99.90;;;;;;5076300;28;20228;-73
2023/01/23 01:32:03;;;;;;;27.93;14.43;;;2.40;99.90;;;;;;5076841;28;20214;-74
2023/01/23 01:34:28;;;;;;;26.67;13.57;;;2.50;99.90;;;;;;5072504;28;20267;-72
2023/01/23 01:36:54;;;;;;;25.93;14.43;;;2.50;99.90;;;;;;5076627;28;20214;-74
2023/01/23 01:39:23;;;;;;;29.30;15.67;;;2.40;99.90;;;;;;5074391;28;20699;-73
2023/01/23 01:41:48;;;;;;;27.83;16.23;;;2.40;99.90;;;;;;5054737;28;20183;-72
2023/01/23 01:44:19;;;;;;;22.70;14.60;;;2.40;99.90;;;;;;5076448;28;20205;-74
2023/01/23 01:46:45;;;;;;;31.90;16.57;;;2.40;99.90;;;;;;5073517;28;20230;-73
2023/01/23 01:49:28;;;;;;;26.23;13.73;;;2.40;99.90;;;;;;5074373;28;20198;-71
2023/01/23 01:51:54;;;;;;;27.23;16.27;;;2.40;99.90;;;;;;5071913;28;20226;-74
2023/01/23 01:54:32;;;;;;;24.10;14.33;;;2.40;99.90;;;;;;5072745;28;20247;-73
2023/01/23 01:57:27;;;;;;;25.17;14.43;;;2.40;99.90;;;;;;5073019;28;20714;-71
2023/01/23 02:00:05;;;;;;;28.63;15.03;;;2.40;99.90;;;;;;5064151;28;20229;-71
2023/01/23 02:02:36;;;;;;;26.53;15.13;;;2.40;99.90;;;;;;5070493;28;20237;-73
2023/01/23 02:05:24;;;;;;;24.80;15.00;;;2.40;99.90;;;;;;5083683;28;20314;-74
2023/01/23 02:08:16;;;;;;;28.50;15.50;;;2.50;99.90;;;;;;5079588;28;20216;-73
2023/01/23 02:10:43;;;;;;;28.17;15.43;;;2.50;99.90;;;;;;5083664;28;20209;-73
2023/01/23 02:13:38;;;;;;;28.70;15.67;;;2.50;99.90;;;;;;5080699;28;20255;-73
2023/01/23 02:16:04;;;;;;;29.30;16.47;;;2.50;99.90;;;;;;5058598;28;20558;-73
2023/01/23 02:18:31;;;;;;;27.40;15.37;;;2.50;99.90;;;;;;5081793;28;20305;-72
2023/01/23 02:21:00;;;;;;;29.93;15.07;;;2.50;99.90;;;;;;5080048;28;20686;-71
2023/01/23 02:23:38;;;;;;;27.90;15.53;;;2.50;99.90;;;;;;5080496;28;20179;-74
2023/01/23 02:26:11;;;;;;;26.30;15.57;;;2.60;99.90;;;;;;5080517;28;20700;-73
2023/01/23 02:28:41;;;;;;;28.03;15.17;;;2.60;99.90;;;;;;5076196;28;20683;-72
2023/01/23 02:31:07;;;;;;;31.77;16.93;;;2.60;99.90;;;;;;5066257;28;20292;-73
2023/01/23 02:33:33;;;;;;;29.33;15.77;;;2.60;99.90;;;;;;5061973;28;20744;-73
2023/01/23 02:36:00;;;;;;;28.40;15.33;;;2.60;99.90;;;;;;5080349;28;20261;-73
2023/01/23 02:38:31;;;;;;;32.13;15.73;;;2.60;99.90;;;;;;5082221;28;20555;-74
2023/01/23 02:41:00;;;;;;;29.30;15.70;;;2.50;99.90;;;;;;5078040;28;20207;-73
2023/01/23 02:43:33;;;;;;;32.93;16.40;;;2.50;99.90;;;;;;5079885;28;20205;-71
2023/01/23 02:46:19;;;;;;;29.53;15.73;;;2.50;99.90;;;;;;5080008;28;20712;-74
2023/01/23 02:48:47;;;;;;;31.53;16.23;;;2.50;99.90;;;;;;5077931;28;20221;-71
2023/01/23 02:51:13;;;;;;;29.37;16.13;;;2.50;99.90;;;;;;5083529;28;20238;-70
2023/01/23 02:53:38;;;;;;;27.97;14.93;;;2.50;99.90;;;;;;5080822;28;20233;-72
2023/01/23 02:56:04;;;;;;;26.73;15.13;;;2.60;99.90;;;;;;5061840;28;20221;-72
2023/01/23 03:01:14;;;;;;;25.67;14.87;;;2.50;99.90;;;;;;5074751;28;20293;-73
2023/01/23 03:03:42;;;;;;;28.17;15.57;;;2.50;99.90;;;;;;5080700;28;20650;-73
2023/01/23 03:06:09;;;;;;;29.17;15.43;;;2.50;99.90;;;;;;5075340;28;20271;-75
2023/01/23 03:08:41;;;;;;;29.10;15.73;;;2.50;99.90;;;;;;5071023;28;20178;-73
2023/01/23 03:11:06;;;;;;;29.20;14.67;;;2.50;99.90;;;;;;5066194;28;20295;-72
2023/01/23 03:13:32;;;;;;;27.63;15.53;;;2.50;99.90;;;;;;5078114;28;20317;-72
2023/01/23 03:15:57;;;;;;;30.03;16.73;;;2.50;99.90;;;;;;5076004;28;20639;-73
2023/01/23 03:18:26;;;;;;;27.67;14.40;;;2.50;99.90;;;;;;5074345;28;20207;-73
2023/01/23 03:20:52;;;;;;;26.03;15.97;;;2.50;99.90;;;;;;5076430;28;20207;-73
2023/01/23 03:23:18;;;;;;;28.23;14.90;;;2.60;99.90;;;;;;5076193;28;20209;-72
2023/01/23 03:25:44;;;;;;;30.50;15.87;;;2.50;99.90;;;;;;5078268;28;20206;-75
2023/01/23 03:30:12;;;;;;;29.47;15.47;;;2.50;99.90;;;;;;5070181;28;20240;-75
2023/01/23 03:30:55;;;;;;;29.13;16.13;;;2.50;99.90;;;;;;5081421;28;20548;-75
2023/01/23 03:33:21;;;;;;;27.33;15.33;;;2.50;99.90;;;;;;5075664;28;20290;-73
2023/01/23 03:35:48;;;;;;;29.70;15.80;;;2.50;99.90;;;;;;5057407;28;20175;-75
2023/01/23 03:38:16;;;;;;;31.17;16.33;;;2.50;99.90;;;;;;5076283;28;20257;-75
2023/01/23 03:43:31;;;;;;;30.43;15.20;;;2.60;99.90;;;;;;5075537;28;20214;-75
2023/01/23 03:45:57;;;;;;;29.03;15.67;;;2.60;99.90;;;;;;5078592;28;20213;-75
2023/01/23 03:48:23;;;;;;;30.30;15.60;;;2.60;99.90;;;;;;5073886;28;20215;-75
2023/01/23 03:50:48;;;;;;;27.33;15.73;;;2.60;99.90;;;;;;5085408;28;20703;-75
2023/01/23 03:53:14;;;;;;;27.73;15.37;;;2.50;99.90;;;;;;5076078;28;20211;-74
2023/01/23 03:55:39;;;;;;;27.60;16.07;;;2.50;99.90;;;;;;5073593;28;20301;-76
2023/01/23 03:58:05;;;;;;;27.00;14.70;;;2.50;99.90;;;;;;5080347;28;20213;-76
2023/01/23 04:00:31;;;;;;;26.93;15.00;;;2.50;99.90;;;;;;5057061;28;20233;-75
2023/01/23 04:02:56;;;;;;;24.47;14.67;;;2.60;99.90;;;;;;5075578;28;20231;-74
2023/01/23 04:05:22;;;;;;;29.20;15.53;;;2.60;99.90;;;;;;5077630;28;20182;-75
2023/01/23 04:07:48;;;;;;;27.40;14.83;;;2.60;99.90;;;;;;5057921;28;20207;-75
2023/01/23 04:10:14;;;;;;;28.90;15.33;;;2.60;99.90;;;;;;5080075;28;20777;-74
2023/01/23 04:12:42;;;;;;;27.10;15.13;;;2.60;99.90;;;;;;5074299;28;20219;-74
2023/01/23 04:15:08;;;;;;;28.67;15.50;;;2.60;99.90;;;;;;5072744;28;20194;-73
2023/01/23 04:17:34;;;;;;;31.90;16.13;;;2.60;99.90;;;;;;5078889;28;20610;-76
2023/01/23 04:20:00;;;;;;;30.13;15.67;;;2.60;99.90;;;;;;5079326;28;20214;-74
2023/01/23 04:22:25;;;;;;;29.83;15.30;;;2.60;99.90;;;;;;5076303;28;20236;-73
2023/01/23 04:24:51;;;;;;;25.70;14.67;;;2.60;99.90;;;;;;5078950;28;20765;-74
2023/01/23 04:27:16;;;;;;;27.47;14.37;;;2.60;99.90;;;;;;5056204;28;20222;-73
2023/01/23 04:29:42;;;;;;;27.60;14.50;;;2.60;99.90;;;;;;5076285;28;20574;-73
2023/01/23 04:32:08;;;;;;;28.57;15.53;;;2.60;99.90;;;;;;5078189;28;20289;-73
2023/01/23 04:34:34;;;;;;;29.43;15.50;;;2.60;99.90;;;;;;5055279;28;20225;-73
2023/01/23 04:37:00;;;;;;;29.37;17.07;;;2.50;99.90;;;;;;5071033;28;20217;-72
2023/01/23 04:39:25;;;;;;;26.17;15.93;;;2.60;99.90;;;;;;5075989;28;20705;-72
2023/01/23 04:41:51;;;;;;;29.00;16.27;;;2.60;99.90;;;;;;5073329;28;20261;-72
2023/01/23 04:44:19;;;;;;;28.77;15.23;;;2.60;99.90;;;;;;5076999;28;20388;-72
2023/01/23 04:46:46;;;;;;;30.87;16.67;;;2.60;99.90;;;;;;5056072;28;20203;-73
2023/01/23 04:49:12;;;;;;;28.50;16.87;;;2.50;99.90;;;;;;5074991;28;20285;-72
2023/01/23 04:51:37;;;;;;;27.43;16.07;;;2.50;99.90;;;;;;5076245;28;20221;-72
2023/01/23 04:54:03;;;;;;;28.40;16.70;;;2.50;99.90;;;;;;5052907;28;20286;-72
2023/01/23 04:56:29;;;;;;;27.80;15.33;;;2.50;99.90;;;;;;5074713;28;20198;-73
2023/01/23 04:58:54;;;;;;;28.40;15.60;;;2.60;99.90;;;;;;5077220;28;20241;-73
2023/01/23 05:01:22;;;;;;;33.85;19.73;;;2.60;99.90;;;;;;5053681;28;20916;-73
2023/01/23 05:03:48;;;;;;;30.83;17.00;;;2.50;99.90;;;;;;5074787;28;20210;-73
2023/01/23 05:06:14;;;;;;;28.80;17.40;;;2.50;99.90;;;;;;5075194;28;20586;-73
2023/01/23 05:08:39;;;;;;;30.07;16.23;;;2.50;99.90;;;;;;5073984;28;20186;-73
2023/01/23 05:11:05;;;;;;;35.80;17.93;;;2.60;99.90;;;;;;5079457;28;20590;-74
2023/01/23 05:13:31;;;;;;;28.90;15.83;;;2.50;99.90;;;;;;5073687;28;20297;-73
2023/01/23 05:15:57;;;;;;;30.10;15.50;;;2.60;99.90;;;;;;5055250;28;20219;-72
2023/01/23 05:18:22;;;;;;;29.70;16.53;;;2.60;99.90;;;;;;5069674;28;20235;-73
2023/01/23 05:20:48;;;;;;;29.10;15.57;;;2.60;99.90;;;;;;5050477;28;20203;-72
2023/01/23 05:23:13;;;;;;;28.47;16.00;;;2.50;99.90;;;;;;5070446;28;20600;-72
2023/01/23 05:25:39;;;;;;;33.87;17.57;;;2.50;99.90;;;;;;5070131;28;20206;-73
2023/01/23 05:28:05;;;;;;;31.40;15.93;;;2.50;99.90;;;;;;5068666;28;20203;-73
2023/01/23 05:30:30;;;;;;;30.17;16.67;;;2.50;99.90;;;;;;5070247;28;20215;-73
2023/01/23 05:32:56;;;;;;;28.77;15.40;;;2.50;99.90;;;;;;5070136;28;20224;-72
2023/01/23 05:35:21;;;;;;;32.20;16.37;;;2.50;99.90;;;;;;5052480;28;20179;-71
2023/01/23 05:37:52;;;;;;;33.30;17.33;;;2.50;99.90;;;;;;5069293;28;20700;-72
2023/01/23 05:40:18;;;;;;;29.33;15.23;;;2.50;99.90;;;;;;5070063;28;20701;-72
2023/01/23 05:42:45;;;;;;;31.47;16.57;;;2.50;99.90;;;;;;5069899;28;20218;-72
2023/01/23 05:45:11;;;;;;;30.27;16.23;;;2.60;99.90;;;;;;5069557;28;20179;-71
2023/01/23 05:47:36;;;;;;;29.93;16.07;;;2.50;99.90;;;;;;5070955;28;20532;-72
2023/01/23 05:50:03;;;;;;;29.17;16.33;;;2.50;99.90;;;;;;5069411;28;20267;-73
2023/01/23 05:52:29;;;;;;;27.47;16.17;;;2.50;99.90;;;;;;5048593;28;20348;-73
2023/01/23 05:54:54;;;;;;;28.83;15.57;;;2.50;99.90;;;;;;5069209;28;20712;-73
2023/01/23 05:57:21;;;;;;;33.37;16.80;;;2.50;99.90;;;;;;5070086;28;20248;-72
2023/01/23 05:59:46;;;;;;;32.37;17.57;;;2.60;99.90;;;;;;5052113;28;20275;-72
2023/01/23 06:02:12;;;;;;;29.40;16.73;;;2.50;99.90;;;;;;5069888;28;20203;-73
2023/01/23 06:04:38;;;;;;;34.00;18.03;;;2.50;99.90;;;;;;5051451;28;20215;-73
2023/01/23 06:07:04;;;;;;;35.37;19.17;;;2.50;99.90;;;;;;5069723;28;20226;-73
2023/01/23 06:09:29;;;;;;;30.00;17.80;;;2.50;99.90;;;;;;5071746;28;20238;-73
2023/01/23 06:11:55;;;;;;;33.13;17.17;;;2.40;99.90;;;;;;5069723;28;20684;-73
2023/01/23 06:14:21;;;;;;;32.90;18.13;;;2.50;99.90;;;;;;5070110;28;20567;-72
2023/01/23 06:16:46;;;;;;;31.30;17.23;;;2.60;99.90;;;;;;5069511;28;20246;-72
2023/01/23 06:19:12;;;;;;;31.67;16.43;;;2.60;99.90;;;;;;5069653;28;20235;-72
2023/01/23 06:21:38;;;;;;;33.47;17.37;;;2.60;99.90;;;;;;5069818;28;20701;-72
2023/01/23 06:24:03;;;;;;;34.13;18.13;;;2.50;99.90;;;;;;5069231;28;20175;-73
2023/01/23 06:26:29;;;;;;;35.40;18.43;;;2.60;99.90;;;;;;5070009;28;20186;-72
2023/01/23 06:28:55;;;;;;;32.53;17.67;;;2.60;99.90;;;;;;5069139;28;20739;-72
2023/01/23 06:31:20;;;;;;;32.00;18.57;;;2.50;99.90;;;;;;5069665;28;20215;-72
2023/01/23 06:33:50;;;;;;;36.43;19.13;;;2.60;99.90;;;;;;5069128;28;20214;-73
2023/01/23 06:36:16;;;;;;;32.20;17.30;;;2.60;99.90;;;;;;5047868;28;20712;-73
2023/01/23 06:38:42;;;;;;;30.33;17.30;;;2.60;99.90;;;;;;5070287;28;20258;-72
2023/01/23 06:41:08;;;;;;;33.33;17.40;;;2.60;99.90;;;;;;5051195;28;20245;-71
2023/01/23 06:43:34;;;;;;;33.07;18.43;;;2.60;99.90;;;;;;5069681;28;20676;-73
2023/01/23 06:46:00;;;;;;;35.60;18.27;;;2.60;99.90;;;;;;5068995;28;20219;-72
2023/01/23 06:48:26;;;;;;;32.97;18.17;;;2.60;99.90;;;;;;5070550;28;20206;-71
2023/01/23 06:50:51;;;;;;;28.50;16.63;;;2.60;99.90;;;;;;5055714;28;20251;-69
2023/01/23 06:53:17;;;;;;;30.73;17.13;;;2.60;99.90;;;;;;5073182;28;20203;-72
2023/01/23 06:55:43;;;;;;;31.20;16.90;;;2.60;99.90;;;;;;5055261;28;20203;-72
2023/01/23 06:58:09;;;;;;;28.73;17.77;;;2.60;99.90;;;;;;5073120;28;20215;-73
2023/01/23 07:00:35;;;;;;;30.40;16.53;;;2.60;99.90;;;;;;5055010;28;20245;-72
2023/01/23 07:03:04;;;;;;;31.10;16.23;;;2.60;99.90;;;;;;5072626;28;20205;-72
2023/01/23 07:05:30;;;;;;;28.47;15.50;;;2.50;99.90;;;;;;5072881;28;20194;-73
2023/01/23 07:07:56;;;;;;;28.20;15.83;;;2.50;99.90;;;;;;5075299;28;20203;-73
2023/01/23 07:10:22;;;;;;;27.83;16.43;;;2.40;99.90;;;;;;5072660;28;20739;-70
2023/01/23 07:12:49;;;;;;;30.67;16.33;;;2.40;99.90;;;;;;5072771;28;20233;-69
2023/01/23 07:15:15;;;;;;;29.33;16.50;;;2.50;99.90;;;;;;5072100;28;20285;-72
2023/01/23 07:17:40;;;;;;;31.50;17.87;;;2.50;99.90;;;;;;5055680;28;20313;-72
2023/01/23 07:20:07;;;;;;;32.23;17.67;;;2.50;99.90;;;;;;5072224;28;20221;-72
2023/01/23 07:22:33;;;;;;;29.33;16.83;;;2.50;99.90;;;;;;5054468;28;20207;-72
2023/01/23 07:24:58;;;;;;;31.57;17.43;;;2.40;99.90;;;;;;5071771;28;20216;-74
2023/01/23 07:27:24;;;;;;;33.83;16.90;;;2.50;99.90;;;;;;5072354;28;20211;-72
2023/01/23 07:29:50;;;;;;;31.30;17.97;;;2.60;99.90;;;;;;5054518;28;20191;-71
2023/01/23 07:32:16;;;;;;;31.80;17.60;;;2.60;99.90;;;;;;5053984;28;20285;-72
2023/01/23 07:34:41;;;;;;;32.43;17.97;;;2.50;99.90;;;;;;5071904;28;20203;-74
2023/01/23 07:37:07;;;;;;;31.33;18.00;;;2.40;99.90;;;;;;5071669;28;20211;-72
2023/01/23 07:39:32;;;;;;;32.17;16.53;;;2.40;99.90;;;;;;5053877;28;20219;-72
2023/01/23 07:41:58;;;;;;;32.87;17.27;;;2.40;99.90;;;;;;5071865;28;20187;-72
2023/01/23 07:44:24;;;;;;;31.57;18.23;;;2.40;99.90;;;;;;5072469;28;20175;-74
2023/01/23 07:46:49;;;;;;;35.70;18.67;;;2.40;99.90;;;;;;5053872;28;20218;-71
2023/01/23 07:49:15;;;;;;;35.30;16.73;;;2.40;99.90;;;;;;5071888;28;20570;-73
2023/01/23 07:51:41;;;;;;;31.90;18.20;;;2.40;99.90;;;;;;5071776;28;20643;-73
2023/01/23 07:54:07;;;;;;;33.73;18.53;;;2.40;99.90;;;;;;5071639;28;20565;-73
2023/01/23 07:56:32;;;;;;;32.57;17.80;;;2.50;99.90;;;;;;5072184;28;20286;-73
2023/01/23 07:58:59;;;;;;;31.10;17.67;;;2.50;99.90;;;;;;5071540;28;20239;-73
2023/01/23 08:01:24;;;;;;;30.97;17.93;;;2.50;99.90;;;;;;5053392;28;20222;-73
2023/01/23 08:03:51;;;;;;;33.70;17.10;;;2.50;99.90;;;;;;5072215;28;20214;-71
2023/01/23 08:06:17;;;;;;;36.87;18.40;;;2.40;99.90;;;;;;5071426;28;20991;-72
2023/01/23 08:08:43;;;;;;;30.07;16.37;;;2.50;99.90;;;;;;5057331;28;20224;-73
2023/01/23 08:11:11;;;;;;;33.40;18.20;;;2.40;99.90;;;;;;5071512;28;20740;-72
2023/01/23 08:13:37;;;;;;;31.13;18.10;;;2.40;99.90;;;;;;5071761;28;20214;-73
2023/01/23 08:16:03;;;;;;;33.63;18.30;;;2.40;99.90;;;;;;5055078;28;20217;-72
2023/01/23 08:18:29;;;;;;;35.47;18.67;;;2.50;99.90;;;;;;5055248;28;20214;-73
2023/01/23 08:20:56;;;;;;;33.50;17.27;;;2.50;99.90;;;;;;5053475;28;20252;-73
2023/01/23 08:23:27;;;;;;;31.83;18.47;;;2.60;99.90;;;;;;5072065;28;20253;-73
2023/01/23 08:25:57;;;;;;;33.40;18.03;;;2.60;99.90;;;;;;5071266;28;20252;-72
2023/01/23 08:28:24;;;;;;;32.07;17.60;;;2.60;99.90;;;;;;5053564;28;20739;-73
2023/01/23 08:30:50;;;;;;;32.67;17.50;;;2.60;99.90;;;;;;5074280;28;20230;-73
2023/01/23 08:33:17;;;;;;;34.60;17.03;;;2.50;99.90;;;;;;5073347;28;20320;-73
2023/01/23 08:35:51;;;;;;;33.30;16.33;;;2.60;99.90;;;;;;5071532;28;20171;-72
2023/01/23 08:38:18;;;;;;;31.43;16.87;;;2.50;99.90;;;;;;5067830;28;20284;-70
2023/01/23 08:40:44;;;;;;;32.03;16.87;;;2.40;99.90;;;;;;5070913;28;20206;-72
2023/01/23 08:43:12;;;;;;;35.67;18.40;;;2.40;99.90;;;;;;5057214;28;20648;-73
2023/01/23 08:45:44;;;;;;;33.30;18.70;;;2.40;99.90;;;;;;5071006;28;20578;-71
2023/01/23 08:48:11;;;;;;;34.30;18.10;;;2.50;99.90;;;;;;5071119;28;20218;-73
2023/01/23 08:50:36;;;;;;;34.90;17.77;;;2.50;99.90;;;;;;5071396;28;20568;-73
2023/01/23 08:53:02;;;;;;;32.27;17.53;;;2.50;99.90;;;;;;5070583;28;20285;-73
2023/01/23 08:55:29;;;;;;;31.97;17.90;;;2.50;99.90;;;;;;5070477;28;20252;-73
2023/01/23 08:57:54;;;;;;;32.47;16.87;;;2.50;99.90;;;;;;5052958;28;20309;-71
2023/01/23 09:00:20;;;;;;;34.57;19.37;;;2.50;99.90;;;;;;5070102;28;20247;-74
2023/01/23 09:02:46;;;;;;;31.73;17.63;;;2.50;99.90;;;;;;5053493;28;20548;-74
2023/01/23 09:05:12;;;;;;;33.87;18.00;;;2.60;99.90;;;;;;5052120;28;20210;-73
2023/01/23 09:07:39;;;;;;;30.93;18.67;;;2.60;99.90;;;;;;5074311;28;20201;-74
2023/01/23 09:10:06;;;;;;;31.53;17.70;;;2.70;99.90;;;;;;5069892;28;20293;-74
2023/01/23 09:12:32;;;;;;;33.23;17.67;;;2.60;99.90;;;;;;5069506;28;20312;-73
2023/01/23 09:14:58;;;;;;;34.27;17.67;;;2.60;99.90;;;;;;5070010;28;20176;-70
2023/01/23 09:17:24;;;;;;;31.60;17.17;;;2.70;99.90;;;;;;5051417;28;20202;-73
2023/01/23 09:19:50;;;;;;;30.90;17.37;;;2.70;99.90;;;;;;5067771;28;20268;-74
2023/01/23 09:22:16;;;;;;;32.60;18.07;;;2.70;99.90;;;;;;5068033;28;20195;-74
2023/01/23 09:24:42;;;;;;;29.47;16.70;;;2.70;99.90;;;;;;5052421;28;20323;-72
2023/01/23 09:27:08;;;;;;;35.37;18.00;;;2.60;99.90;;;;;;5070135;28;20182;-71
2023/01/23 09:29:34;;;;;;;30.50;17.70;;;2.60;99.90;;;;;;5070873;28;20297;-73
2023/01/23 09:32:00;;;;;;;32.67;18.63;;;2.60;99.90;;;;;;5070059;28;20575;-73
2023/01/23 09:34:27;;;;;;;30.50;17.70;;;2.70;99.90;;;;;;5052168;28;20208;-73
2023/01/23 09:36:52;;;;;;;27.97;16.47;;;2.70;99.90;;;;;;5069871;28;20215;-74
2023/01/23 09:39:19;;;;;;;32.13;16.57;;;2.70;99.90;;;;;;5069740;28;20288;-74
2023/01/23 09:41:46;;;;;;;31.20;18.00;;;2.70;99.90;;;;;;5070750;28;20186;-74
2023/01/23 09:44:15;;;;;;;29.90;17.50;;;2.70;99.90;;;;;;5069928;28;20635;-73
2023/01/23 09:47:04;;;;;;;31.90;17.40;;;2.70;99.90;;;;;;5063035;28;20203;-74
2023/01/23 09:49:45;;;;;;;30.53;17.53;;;2.70;99.90;;;;;;5041105;28;20226;-73
2023/01/23 09:52:23;;;;;;;33.30;18.70;;;2.70;99.90;;;;;;5051733;28;20268;-73
2023/01/23 09:54:52;;;;;;;31.13;16.70;;;2.60;99.90;;;;;;5069718;28;20227;-71
2023/01/23 09:57:58;;;;;;;33.57;18.03;;;2.70;99.90;;;;;;5069449;28;20225;-74
2023/01/23 10:00:33;;;;;;;32.97;18.77;;;2.80;99.90;;;;;;4933324;29;20222;-73
2023/01/23 10:03:10;;;;;;;37.67;18.70;;;2.90;99.90;;;;;;4946790;28;20261;-73
2023/01/23 10:06:02;;;;;;;33.47;18.27;;;2.90;99.90;;;;;;5021519;28;20256;-73
2023/01/23 10:08:53;;;;;;;32.20;17.73;;;2.90;99.90;;;;;;5073994;28;20217;-74
2023/01/23 10:11:32;;;;;;;33.70;18.37;;;2.90;99.90;;;;;;5068845;28;20596;-73
2023/01/23 10:14:26;;;;;;;34.07;18.40;;;2.90;99.90;;;;;;5051490;28;20203;-73
2023/01/23 10:16:55;;;;;;;34.37;18.57;;;2.90;99.90;;;;;;5069673;28;20214;-70
2023/01/23 10:19:49;;;;;;;32.33;18.47;;;2.90;99.90;;;;;;5051547;28;20298;-74
2023/01/23 10:22:15;;;;;;;30.23;17.27;;;3.00;99.90;;;;;;5050670;28;20218;-74
2023/01/23 10:24:44;;;;;;;34.47;18.53;;;3.10;99.90;;;;;;5054528;28;20252;-74
2023/01/23 10:27:14;;;;;;;33.70;18.37;;;3.00;99.90;;;;;;5051901;28;20189;-73
2023/01/23 10:29:45;;;;;;;31.27;17.83;;;3.00;99.90;;;;;;5073925;28;20203;-73
2023/01/23 10:33:00;;;;;;;30.33;17.87;;;3.00;99.90;;;;;;5073612;28;20263;-72
2023/01/23 10:35:31;;;;;;;33.50;18.43;;;3.00;99.90;;;;;;5037489;28;20645;-73
2023/01/23 10:38:21;;;;;;;29.40;16.57;;;3.10;99.90;;;;;;5074046;28;20218;-74
2023/01/23 10:43:32;;;;;;;26.43;16.60;;;3.10;99.90;;;;;;5070473;28;20260;-74
2023/01/23 10:45:57;;;;;;;32.60;18.97;;;3.20;99.90;;;;;;5073123;28;20210;-72
2023/01/23 10:48:50;;;;;;;29.33;17.50;;;3.20;99.90;;;;;;5072251;28;20199;-73
2023/01/23 10:51:33;;;;;;;33.70;18.63;;;3.30;99.90;;;;;;5070157;28;20207;-73
2023/01/23 10:54:01;;;;;;;29.73;17.63;;;3.30;99.90;;;;;;5072782;28;20167;-71
2023/01/23 10:56:26;;;;;;;34.57;18.90;;;3.20;99.90;;;;;;5055237;28;20893;-72
2023/01/23 10:58:55;;;;;;;29.03;17.37;;;3.20;99.90;;;;;;5054921;28;20198;-71
2023/01/23 11:01:25;;;;;;;28.93;17.43;;;3.20;99.90;;;;;;5072962;28;20223;-73
2023/01/23 11:03:50;;;;;;;31.30;16.97;;;3.20;99.90;;;;;;5073069;28;20604;-73
2023/01/23 11:06:19;;;;;;;33.53;19.27;;;3.20;99.90;;;;;;5054492;28;20213;-72
2023/01/23 11:08:57;;;;;;;32.67;18.33;;;3.30;99.90;;;;;;5073732;28;20183;-70
2023/01/23 11:11:26;;;;;;;30.17;18.37;;;3.30;99.90;;;;;;5073365;28;20203;-75
2023/01/23 11:14:09;;;;;;;29.63;16.60;;;3.20;99.90;;;;;;5073007;28;20207;-71
2023/01/23 11:16:36;;;;;;;31.03;17.40;;;3.20;99.90;;;;;;5069967;28;20721;-74
2023/01/23 11:19:21;;;;;;;32.07;17.67;;;3.30;99.90;;;;;;5054535;28;20255;-74
2023/01/23 11:21:58;;;;;;;29.90;17.20;;;3.20;99.90;;;;;;5070745;28;20228;-74
2023/01/23 11:24:24;;;;;;;29.47;18.27;;;3.10;99.90;;;;;;5072582;28;20290;-75
2023/01/23 11:27:01;;;;;;;32.00;18.20;;;3.10;99.90;;;;;;5073136;28;20299;-74
2023/01/23 11:29:29;;;;;;;29.43;17.67;;;3.10;99.90;;;;;;5072649;28;20249;-74
2023/01/23 11:32:07;;;;;;;29.77;17.03;;;3.10;99.90;;;;;;5074984;28;20202;-74
2023/01/23 11:34:41;;;;;;;29.63;17.23;;;3.00;99.90;;;;;;5071957;28;20210;-73
2023/01/23 11:37:21;;;;;;;35.77;18.73;;;3.10;99.90;;;;;;5069769;28;20210;-73
2023/01/23 11:39:56;;;;;;;29.47;17.60;;;3.20;99.90;;;;;;5072323;28;20586;-73
2023/01/23 11:42:25;;;;;;;30.53;17.73;;;3.30;99.90;;;;;;5072430;28;20306;-74
2023/01/23 11:44:51;;;;;;;28.33;17.40;;;3.40;99.90;;;;;;5072718;28;20172;-72
2023/01/23 11:47:47;;;;;;;30.10;16.53;;;3.40;99.90;;;;;;5072201;28;20204;-73
2023/01/23 11:50:37;;;;;;;29.57;16.87;;;3.30;99.90;;;;;;5070071;28;20211;-72
2023/01/23 11:53:30;;;;;;;33.57;17.70;;;3.40;99.90;;;;;;5069399;28;20209;-72
2023/01/23 11:56:15;;;;;;;27.80;16.83;;;3.50;99.90;;;;;;5053187;28;20204;-71
2023/01/23 11:58:58;;;;;;;29.10;17.27;;;3.50;99.90;;;;;;5070918;28;20212;-72
2023/01/23 12:01:29;;;;;;;31.37;18.27;;;3.50;99.90;;;;;;5071637;28;20202;-72
2023/01/23 12:04:01;;;;;;;30.63;16.87;;;3.60;99.90;;;;;;5072221;28;20255;-74
2023/01/23 12:06:48;;;;;;;31.67;18.67;;;3.60;99.90;;;;;;5071780;28;20214;-73
2023/01/23 12:09:17;;;;;;;32.80;18.47;;;3.40;99.90;;;;;;5070589;28;20288;-73
2023/01/23 12:12:01;;;;;;;32.80;18.50;;;3.20;99.90;;;;;;5054656;28;20677;-74
2023/01/23 12:14:51;;;;;;;31.00;18.27;;;3.10;99.90;;;;;;5071989;28;20212;-74
2023/01/23 12:17:42;;;;;;;26.87;17.30;;;3.30;99.90;;;;;;5071668;28;20257;-76
2023/01/23 12:20:23;;;;;;;27.90;16.43;;;3.30;99.90;;;;;;5070473;28;20662;-73
2023/01/23 12:23:13;;;;;;;29.60;17.30;;;3.30;99.90;;;;;;5066214;28;20260;-73
2023/01/23 12:25:49;;;;;;;28.10;16.33;;;3.30;99.90;;;;;;5067213;28;20203;-73
2023/01/23 12:28:39;;;;;;;27.07;16.77;;;3.40;99.90;;;;;;5069602;28;20203;-73
2023/01/23 12:31:26;;;;;;;29.87;16.93;;;3.40;99.90;;;;;;5050521;28;20219;-71
2023/01/23 12:34:10;;;;;;;25.73;16.13;;;3.30;99.90;;;;;;5068380;28;20217;-72
2023/01/23 12:36:42;;;;;;;24.47;14.63;;;3.20;99.90;;;;;;5067687;28;20692;-73
2023/01/23 12:39:29;;;;;;;26.40;16.90;;;3.20;99.90;;;;;;5071202;28;20278;-73
2023/01/23 12:42:02;;;;;;;25.83;15.27;;;3.20;99.90;;;;;;5069574;28;20190;-73
2023/01/23 12:44:42;;;;;;;29.17;15.17;;;3.30;99.90;;;;;;5071068;28;20171;-74
2023/01/23 12:47:26;;;;;;;30.63;18.77;;;3.50;99.90;;;;;;5070417;28;20578;-74
2023/01/23 12:49:57;;;;;;;29.17;16.83;;;3.50;99.90;;;;;;5051382;28;20218;-71
2023/01/23 12:52:33;;;;;;;28.87;16.83;;;3.40;99.90;;;;;;5069633;28;20211;-74
2023/01/23 12:55:23;;;;;;;25.83;15.10;;;3.40;99.90;;;;;;5052269;28;20203;-74
2023/01/23 12:57:53;;;;;;;24.17;15.23;;;3.50;99.90;;;;;;5070890;28;20246;-73